Time;durP1;ratioP1;P1;durP2;ratioP2;P2;SDS_P1;SDS_P2;PMS_P1;PMS_P2;Temp;Humidity;BMP_temperature;BMP_pressure;BME280_temperature;BME280_humidity;BME280_pressure;Samples;Min_cycle;Max_cycle;Signal;HPM_P1;HPM_P2
2021/06/15 00:01:01;;;;;;;4.13;3.60;;;20.90;99.90;;;;;;5112056;28;20258;-75
2021/06/15 00:03:27;;;;;;;5.37;4.13;;;20.90;99.90;;;;;;5111892;28;20233;-75
2021/06/15 00:05:55;;;;;;;3.93;3.63;;;20.90;99.90;;;;;;5111502;28;20700;-75
2021/06/15 00:08:22;;;;;;;3.80;3.50;;;20.90;99.90;;;;;;5111919;28;20206;-75
2021/06/15 00:10:49;;;;;;;4.47;3.50;;;20.90;99.90;;;;;;5111645;28;20679;-74
2021/06/15 00:13:16;;;;;;;6.13;3.53;;;20.90;99.90;;;;;;5111828;28;20210;-75
2021/06/15 00:15:47;;;;;;;3.97;3.40;;;20.90;99.90;;;;;;5111722;28;20602;-75
2021/06/15 00:18:14;;;;;;;3.77;3.40;;;20.90;99.90;;;;;;5111587;28;20279;-75
2021/06/15 00:20:40;;;;;;;6.47;3.43;;;20.90;99.90;;;;;;5111677;28;20261;-75
2021/06/15 00:23:08;;;;;;;5.13;3.37;;;20.90;99.90;;;;;;5111591;28;20271;-75
2021/06/15 00:25:35;;;;;;;4.13;3.83;;;20.80;99.90;;;;;;5111685;28;20229;-75
2021/06/15 00:28:01;;;;;;;5.33;3.47;;;20.80;99.90;;;;;;5111462;28;20236;-76
2021/06/15 00:30:28;;;;;;;4.10;3.37;;;20.80;99.90;;;;;;5111574;28;20222;-75
2021/06/15 00:32:55;;;;;;;3.97;3.67;;;20.80;99.90;;;;;;5111240;28;20233;-75
2021/06/15 00:35:22;;;;;;;4.40;3.83;;;20.70;99.90;;;;;;5111253;28;20209;-75
2021/06/15 00:37:49;;;;;;;4.23;3.70;;;20.70;99.90;;;;;;5111287;28;20255;-75
2021/06/15 00:40:17;;;;;;;3.90;3.53;;;20.70;99.90;;;;;;5111198;28;20279;-74
2021/06/15 00:42:44;;;;;;;3.90;3.50;;;20.70;99.90;;;;;;5111090;28;20222;-75
2021/06/15 00:45:14;;;;;;;5.30;3.47;;;20.60;99.90;;;;;;5111043;28;20243;-75
2021/06/15 00:47:45;;;;;;;4.27;3.50;;;20.60;99.90;;;;;;5111286;28;20701;-74
2021/06/15 00:50:12;;;;;;;4.40;4.00;;;20.60;99.90;;;;;;5111078;27;20272;-73
2021/06/15 00:52:39;;;;;;;5.10;3.80;;;20.60;99.90;;;;;;5110525;28;20597;-73
2021/06/15 00:55:07;;;;;;;3.70;3.40;;;20.60;99.90;;;;;;5110166;28;20609;-73
2021/06/15 00:57:35;;;;;;;4.93;3.60;;;20.50;99.90;;;;;;5110073;28;20255;-74
2021/06/15 01:00:01;;;;;;;5.53;4.57;;;20.50;99.90;;;;;;5110056;28;20261;-74
2021/06/15 01:02:30;;;;;;;6.07;3.87;;;20.40;99.90;;;;;;5110307;28;20236;-74
2021/06/15 01:04:59;;;;;;;3.83;3.53;;;20.50;99.90;;;;;;5110325;28;20299;-73
2021/06/15 01:07:28;;;;;;;11.53;4.23;;;20.40;99.90;;;;;;5110623;28;20236;-73
2021/06/15 01:10:02;;;;;;;4.17;3.87;;;20.40;99.90;;;;;;5110659;28;20206;-73
2021/06/15 01:12:41;;;;;;;3.60;3.30;;;20.40;99.90;;;;;;5110658;28;20194;-73
2021/06/15 01:15:11;;;;;;;6.13;4.53;;;20.40;99.90;;;;;;5110172;28;20206;-74
2021/06/15 01:17:45;;;;;;;3.87;3.53;;;20.40;99.90;;;;;;5110629;28;20226;-74
2021/06/15 01:20:18;;;;;;;6.03;4.00;;;20.40;99.90;;;;;;5110391;28;20214;-74
2021/06/15 01:23:23;;;;;;;3.70;3.40;;;20.40;99.90;;;;;;5110421;28;20219;-71
2021/06/15 01:26:00;;;;;;;5.40;3.80;;;20.40;99.90;;;;;;5110127;28;20209;-72
2021/06/15 01:28:31;;;;;;;4.67;3.70;;;20.40;99.90;;;;;;5110401;28;20648;-73
2021/06/15 01:31:03;;;;;;;5.80;3.80;;;20.40;99.90;;;;;;5110412;28;20228;-74
2021/06/15 01:33:32;;;;;;;4.53;3.77;;;20.40;99.90;;;;;;5110051;28;20187;-73
2021/06/15 01:36:00;;;;;;;4.40;3.50;;;20.30;99.90;;;;;;5110273;28;20278;-75
2021/06/15 01:38:32;;;;;;;4.30;3.90;;;20.30;99.90;;;;;;5110299;28;20696;-75
2021/06/15 01:41:04;;;;;;;5.97;3.90;;;20.30;99.90;;;;;;5109623;28;20710;-75
2021/06/15 01:43:36;;;;;;;4.77;3.33;;;20.20;99.90;;;;;;5110199;28;20190;-75
2021/06/15 01:46:07;;;;;;;4.00;3.70;;;20.10;99.90;;;;;;5109895;28;20198;-74
2021/06/15 01:48:46;;;;;;;3.90;3.60;;;20.10;99.90;;;;;;5109764;28;20186;-73
2021/06/15 01:51:14;;;;;;;5.83;3.80;;;20.10;99.90;;;;;;5109760;28;20200;-73
2021/06/15 01:53:45;;;;;;;3.63;3.30;;;20.00;99.90;;;;;;5109616;28;20442;-73
2021/06/15 01:56:16;;;;;;;4.77;3.37;;;20.00;99.90;;;;;;5109653;28;20251;-73
2021/06/15 01:58:45;;;;;;;5.47;3.70;;;19.90;99.90;;;;;;5109751;28;20234;-73
2021/06/15 02:01:13;;;;;;;4.30;3.83;;;20.00;99.90;;;;;;5109574;28;20225;-73
2021/06/15 02:03:40;;;;;;;4.53;3.60;;;19.80;99.90;;;;;;5109397;28;20530;-72
2021/06/15 02:06:08;;;;;;;3.80;3.23;;;19.70;99.90;;;;;;5108807;28;20248;-73
2021/06/15 02:08:38;;;;;;;6.50;3.53;;;19.70;99.90;;;;;;5109217;28;20259;-73
2021/06/15 02:11:06;;;;;;;6.53;3.50;;;19.70;99.90;;;;;;5109469;28;20233;-73
2021/06/15 02:13:37;;;;;;;6.40;3.90;;;19.70;99.90;;;;;;5109440;28;20206;-73
2021/06/15 02:16:06;;;;;;;4.30;3.67;;;19.80;99.90;;;;;;5109439;28;20198;-73
2021/06/15 02:18:34;;;;;;;3.50;3.20;;;19.70;99.90;;;;;;5109263;28;20235;-73
2021/06/15 02:21:03;;;;;;;4.33;3.70;;;19.70;99.90;;;;;;5109272;28;20286;-73
2021/06/15 02:23:31;;;;;;;3.60;3.30;;;19.80;99.90;;;;;;5109372;28;20202;-73
2021/06/15 02:26:01;;;;;;;5.07;3.60;;;19.80;99.90;;;;;;5109077;28;20729;-73
2021/06/15 02:28:28;;;;;;;4.13;3.73;;;19.90;99.90;;;;;;5109263;28;20190;-73
2021/06/15 02:30:56;;;;;;;4.60;3.60;;;19.90;99.90;;;;;;5109096;28;20206;-73
2021/06/15 02:33:27;;;;;;;3.87;3.60;;;19.90;99.90;;;;;;5108907;28;20706;-73
2021/06/15 02:35:59;;;;;;;4.33;3.97;;;19.90;99.90;;;;;;5108924;28;20633;-73
2021/06/15 02:38:29;;;;;;;4.40;3.57;;;19.80;99.90;;;;;;5108564;28;20708;-73
2021/06/15 02:41:02;;;;;;;4.37;3.80;;;19.80;99.90;;;;;;5108840;28;20233;-73
2021/06/15 02:43:30;;;;;;;4.97;4.27;;;19.80;99.90;;;;;;5108881;28;20289;-73
2021/06/15 02:45:58;;;;;;;4.53;4.13;;;19.80;99.90;;;;;;5109108;28;20202;-73
2021/06/15 02:48:32;;;;;;;5.87;4.30;;;19.50;99.90;;;;;;5108960;28;20785;-73
2021/06/15 02:50:59;;;;;;;6.77;3.90;;;19.30;99.90;;;;;;5108898;28;21094;-73
2021/06/15 02:53:33;;;;;;;5.83;3.87;;;19.40;99.90;;;;;;5108736;28;20202;-75
2021/06/15 02:56:02;;;;;;;4.53;4.00;;;19.40;99.90;;;;;;5108825;28;20202;-75
2021/06/15 02:58:30;;;;;;;5.07;4.23;;;19.50;99.90;;;;;;5108962;28;20462;-75
2021/06/15 03:00:56;;;;;;;4.80;4.10;;;19.50;99.90;;;;;;5109095;28;20233;-75
2021/06/15 03:03:23;;;;;;;4.50;3.90;;;19.60;99.90;;;;;;5108866;28;20231;-75
2021/06/15 03:05:51;;;;;;;4.63;4.17;;;19.60;99.90;;;;;;5108532;28;20635;-75
2021/06/15 03:08:18;;;;;;;3.90;3.53;;;19.60;99.90;;;;;;5108590;28;20201;-75
2021/06/15 03:10:45;;;;;;;4.10;3.80;;;19.70;99.90;;;;;;5108865;28;20255;-75
2021/06/15 03:13:15;;;;;;;4.67;4.27;;;19.60;99.90;;;;;;5108657;28;20289;-74
2021/06/15 03:15:44;;;;;;;4.60;3.70;;;19.50;99.90;;;;;;5108804;28;20201;-74
2021/06/15 03:18:20;;;;;;;4.63;3.77;;;19.50;99.90;;;;;;5111599;28;20291;-73
2021/06/15 03:20:49;;;;;;;4.90;4.20;;;19.50;99.90;;;;;;5112836;28;20221;-73
2021/06/15 03:23:30;;;;;;;4.50;4.10;;;19.50;99.90;;;;;;5112554;28;20255;-73
2021/06/15 03:25:58;;;;;;;7.77;4.10;;;19.60;99.90;;;;;;5112922;28;20194;-73
2021/06/15 03:28:27;;;;;;;4.57;4.07;;;19.60;99.90;;;;;;5112841;28;20202;-73
2021/06/15 03:30:54;;;;;;;5.40;3.80;;;19.60;99.90;;;;;;5112603;28;20254;-73
2021/06/15 03:33:23;;;;;;;5.30;3.97;;;19.60;99.90;;;;;;5112449;27;20232;-73
2021/06/15 03:35:53;;;;;;;5.63;3.80;;;19.60;99.90;;;;;;5112516;28;20259;-73
2021/06/15 03:38:23;;;;;;;6.30;4.23;;;19.60;99.90;;;;;;5111996;28;20206;-73
2021/06/15 03:40:52;;;;;;;4.30;4.00;;;19.60;99.90;;;;;;5112426;28;20222;-73
2021/06/15 03:43:21;;;;;;;4.70;4.17;;;19.70;99.90;;;;;;5112429;28;20251;-73
2021/06/15 03:45:51;;;;;;;5.57;3.90;;;19.70;99.90;;;;;;5112355;28;20286;-73
2021/06/15 03:48:19;;;;;;;4.20;3.80;;;19.60;99.90;;;;;;5117849;27;20198;-73
2021/06/15 03:50:48;;;;;;;4.03;3.73;;;19.70;99.90;;;;;;5114377;27;20202;-73
2021/06/15 03:53:17;;;;;;;5.13;3.73;;;19.60;99.90;;;;;;5120012;27;20712;-72
2021/06/15 03:55:46;;;;;;;4.43;4.00;;;19.60;99.90;;;;;;5122969;27;20698;-72
2021/06/15 03:58:15;;;;;;;4.27;3.87;;;19.60;99.90;;;;;;5119922;27;20641;-73
2021/06/15 04:00:48;;;;;;;30.47;5.20;;;19.60;99.90;;;;;;5111834;28;20230;-73
2021/06/15 04:03:16;;;;;;;17.83;5.10;;;19.70;99.90;;;;;;5111650;28;20661;-73
2021/06/15 04:05:43;;;;;;;14.17;4.33;;;19.70;99.90;;;;;;5115981;27;20233;-72
2021/06/15 04:08:14;;;;;;;52.10;7.47;;;19.70;99.90;;;;;;5130316;27;20209;-73
2021/06/15 04:10:45;;;;;;;20.83;5.70;;;19.70;99.90;;;;;;5130730;27;20206;-73
2021/06/15 04:13:14;;;;;;;4.83;3.87;;;19.80;99.90;;;;;;5130841;27;20190;-73
2021/06/15 04:15:41;;;;;;;5.03;3.97;;;19.80;99.90;;;;;;5130592;27;20238;-73
2021/06/15 04:18:09;;;;;;;5.07;4.33;;;19.80;99.90;;;;;;5118017;27;20263;-73
2021/06/15 04:20:40;;;;;;;4.80;4.20;;;19.70;99.90;;;;;;5109350;28;20329;-72
2021/06/15 04:23:08;;;;;;;4.73;4.30;;;19.70;99.90;;;;;;5109236;28;20186;-72
2021/06/15 04:25:38;;;;;;;8.00;4.13;;;19.50;99.90;;;;;;5108822;28;20750;-72
2021/06/15 04:28:07;;;;;;;4.10;3.70;;;19.40;99.90;;;;;;5120222;27;20656;-72
2021/06/15 04:30:35;;;;;;;4.37;3.97;;;19.50;99.90;;;;;;5123516;27;20210;-72
2021/06/15 04:33:03;;;;;;;5.70;3.97;;;19.60;99.90;;;;;;5118469;27;20202;-73
2021/06/15 04:35:33;;;;;;;6.10;3.90;;;19.70;99.90;;;;;;5122179;27;20209;-72
2021/06/15 04:38:03;;;;;;;5.43;4.07;;;19.80;99.90;;;;;;5120450;27;20213;-73
2021/06/15 04:40:35;;;;;;;4.73;4.30;;;19.80;99.90;;;;;;5114523;27;20214;-73
2021/06/15 04:43:17;;;;;;;6.20;4.20;;;19.90;99.90;;;;;;5130514;27;20205;-72
2021/06/15 04:45:46;;;;;;;4.10;3.80;;;19.90;99.90;;;;;;5131426;27;20205;-74
2021/06/15 04:48:24;;;;;;;4.73;4.10;;;20.00;99.90;;;;;;5131205;27;20213;-73
2021/06/15 04:50:51;;;;;;;5.10;4.20;;;20.00;99.90;;;;;;5130000;27;20430;-73
2021/06/15 04:53:19;;;;;;;5.20;4.20;;;20.00;99.90;;;;;;5125010;27;20247;-73
2021/06/15 04:55:47;;;;;;;7.67;4.40;;;20.00;99.90;;;;;;5119511;27;20277;-73
2021/06/15 04:58:16;;;;;;;5.57;4.57;;;19.90;99.90;;;;;;5131136;27;20209;-73
2021/06/15 05:00:43;;;;;;;5.50;3.87;;;19.70;99.90;;;;;;5126569;27;20761;-73
2021/06/15 05:03:11;;;;;;;5.20;4.20;;;19.80;99.90;;;;;;5114316;27;20243;-73
2021/06/15 05:05:38;;;;;;;7.73;4.40;;;19.80;99.90;;;;;;5130750;27;20272;-73
2021/06/15 05:08:07;;;;;;;5.10;3.77;;;19.90;99.90;;;;;;5119421;27;20576;-73
2021/06/15 05:10:37;;;;;;;4.47;4.00;;;19.90;99.90;;;;;;5116655;27;20244;-73
2021/06/15 05:13:09;;;;;;;4.70;4.20;;;20.00;99.90;;;;;;5123466;27;20207;-74
2021/06/15 05:15:41;;;;;;;9.03;4.30;;;19.80;99.90;;;;;;5128903;27;20198;-75
2021/06/15 05:18:08;;;;;;;4.60;4.20;;;19.60;99.90;;;;;;5126105;27;20432;-73
2021/06/15 05:20:35;;;;;;;8.00;4.53;;;19.50;99.90;;;;;;5127526;27;20278;-74
2021/06/15 05:23:06;;;;;;;6.20;4.43;;;19.50;99.90;;;;;;5128535;27;20634;-75
2021/06/15 05:25:33;;;;;;;6.00;4.80;;;19.50;99.90;;;;;;5128587;27;20255;-74
2021/06/15 05:28:00;;;;;;;7.90;4.70;;;19.70;99.90;;;;;;5128110;27;20697;-75
2021/06/15 05:30:28;;;;;;;6.23;4.63;;;19.80;99.90;;;;;;5127960;27;20569;-75
2021/06/15 05:32:56;;;;;;;8.90;4.57;;;19.80;99.90;;;;;;5128244;27;20209;-75
2021/06/15 05:35:22;;;;;;;6.77;4.60;;;19.80;99.90;;;;;;5127970;27;20628;-74
2021/06/15 05:37:50;;;;;;;7.17;4.50;;;19.80;99.90;;;;;;5127853;27;20667;-74
2021/06/15 05:40:18;;;;;;;6.20;5.00;;;19.90;99.90;;;;;;5126770;27;20228;-74
2021/06/15 05:42:45;;;;;;;9.63;7.13;;;19.90;99.90;;;;;;5128481;27;20233;-74
2021/06/15 05:45:13;;;;;;;7.07;5.60;;;20.00;99.90;;;;;;5128180;27;20214;-74
2021/06/15 05:47:39;;;;;;;9.03;5.43;;;20.00;99.90;;;;;;5128209;27;20609;-74
2021/06/15 05:50:08;;;;;;;5.87;4.33;;;20.00;99.90;;;;;;5128015;27;20217;-74
2021/06/15 05:52:35;;;;;;;12.87;5.20;;;20.20;99.90;;;;;;5129071;27;20213;-74
2021/06/15 05:55:03;;;;;;;5.97;4.67;;;20.30;99.90;;;;;;5128253;27;20229;-74
2021/06/15 05:57:31;;;;;;;19.00;5.23;;;20.40;99.90;;;;;;5126997;27;20266;-73
2021/06/15 05:59:58;;;;;;;12.80;5.50;;;20.50;99.90;;;;;;5124362;27;20236;-74
2021/06/15 06:02:24;;;;;;;7.30;4.90;;;20.60;99.90;;;;;;5126069;27;20244;-75
2021/06/15 06:05:03;;;;;;;7.63;4.60;;;20.70;99.90;;;;;;5109122;28;20723;-74
2021/06/15 06:10:16;;;;;;;6.37;5.00;;;20.80;99.90;;;;;;5109146;28;20197;-75
2021/06/15 06:12:42;;;;;;;7.87;4.60;;;20.80;99.90;;;;;;5109187;28;20764;-73
2021/06/15 06:15:13;;;;;;;9.97;5.23;;;20.90;99.90;;;;;;5119260;27;20259;-74
2021/06/15 06:17:40;;;;;;;11.43;5.73;;;21.00;99.90;;;;;;5128659;27;20304;-73
2021/06/15 06:20:11;;;;;;;12.50;4.73;;;21.00;99.90;;;;;;5129202;27;20206;-73
2021/06/15 06:22:40;;;;;;;13.33;5.20;;;21.10;99.90;;;;;;5128539;27;20266;-73
2021/06/15 06:25:11;;;;;;;24.87;6.07;;;21.20;99.90;;;;;;5129753;27;20242;-73
2021/06/15 06:27:38;;;;;;;10.57;6.00;;;21.20;99.90;;;;;;5129869;27;20301;-73
2021/06/15 06:30:06;;;;;;;14.70;5.57;;;21.20;99.90;;;;;;5129592;27;20691;-73
2021/06/15 06:32:33;;;;;;;15.77;10.97;;;21.30;99.90;;;;;;5129827;27;20253;-73
2021/06/15 06:35:01;;;;;;;9.53;6.20;;;21.30;99.90;;;;;;5129797;27;20201;-73
2021/06/15 06:37:28;;;;;;;7.47;4.97;;;21.30;99.90;;;;;;5129200;27;20287;-73
2021/06/15 06:39:56;;;;;;;8.77;5.40;;;21.40;99.90;;;;;;5129521;27;20209;-73
2021/06/15 06:42:23;;;;;;;7.47;5.20;;;21.40;99.90;;;;;;5129108;27;20788;-73
2021/06/15 06:44:49;;;;;;;23.03;6.53;;;21.50;99.90;;;;;;5129236;27;20663;-74
2021/06/15 06:47:16;;;;;;;11.07;5.07;;;21.50;99.90;;;;;;5129306;27;20253;-73
2021/06/15 06:49:42;;;;;;;10.57;5.40;;;21.50;99.90;;;;;;5129457;27;20201;-73
2021/06/15 06:52:09;;;;;;;13.73;5.50;;;21.60;99.90;;;;;;5128765;27;20202;-73
2021/06/15 06:54:36;;;;;;;8.57;5.05;;;21.70;99.90;;;;;;5129224;27;20205;-73
2021/06/15 06:57:04;;;;;;;11.30;5.10;;;21.70;99.90;;;;;;5129365;27;20209;-73
2021/06/15 06:59:31;;;;;;;8.90;5.13;;;21.80;99.90;;;;;;5129357;27;20201;-73
2021/06/15 07:01:58;;;;;;;7.33;4.83;;;21.80;99.90;;;;;;5129171;27;20261;-73
2021/06/15 07:04:24;;;;;;;12.30;5.43;;;21.90;99.90;;;;;;5128725;27;20233;-73
2021/06/15 07:06:51;;;;;;;28.80;6.43;;;21.90;99.90;;;;;;5129084;28;20208;-73
2021/06/15 07:09:17;;;;;;;18.58;5.63;;;22.00;99.90;;;;;;5129037;27;20201;-73
2021/06/15 07:11:44;;;;;;;7.70;5.00;;;22.00;99.90;;;;;;5128980;28;20205;-73
2021/06/15 07:14:12;;;;;;;6.35;5.18;;;22.00;99.90;;;;;;5129186;27;20201;-73
2021/06/15 07:16:39;;;;;;;6.55;5.00;;;22.10;99.90;;;;;;5128939;28;20216;-74
2021/06/15 07:19:06;;;;;;;6.75;4.90;;;22.10;99.90;;;;;;5129150;28;20201;-73
2021/06/15 07:21:33;;;;;;;5.40;4.88;;;22.10;99.90;;;;;;5129042;28;20286;-74
2021/06/15 07:23:59;;;;;;;8.75;5.88;;;22.10;99.90;;;;;;5128899;28;20201;-73
2021/06/15 07:26:26;;;;;;;11.30;5.50;;;22.20;99.90;;;;;;5129109;28;20204;-74
2021/06/15 07:28:53;;;;;;;6.32;5.30;;;22.20;99.90;;;;;;5129145;28;20205;-73
2021/06/15 07:31:21;;;;;;;8.15;4.78;;;22.20;99.90;;;;;;5128954;28;20205;-73
2021/06/15 07:33:47;;;;;;;6.55;5.10;;;22.20;99.90;;;;;;5128959;27;20233;-73
2021/06/15 07:36:14;;;;;;;26.55;6.88;;;22.30;99.90;;;;;;5128641;27;20719;-73
2021/06/15 07:38:40;;;;;;;25.23;6.78;;;22.30;99.90;;;;;;5129003;27;20206;-73
2021/06/15 07:41:07;;;;;;;11.98;5.72;;;22.30;99.90;;;;;;5128667;27;20318;-73
2021/06/15 07:43:37;;;;;;;9.27;6.03;;;22.30;99.90;;;;;;5128994;27;20256;-73
2021/06/15 07:46:03;;;;;;;8.80;5.50;;;22.30;99.90;;;;;;5128936;28;20213;-73
2021/06/15 07:48:31;;;;;;;5.45;4.95;;;22.30;99.90;;;;;;5128627;28;20210;-74
2021/06/15 07:50:58;;;;;;;7.57;5.00;;;22.40;99.90;;;;;;5128535;28;20235;-73
2021/06/15 07:53:24;;;;;;;12.05;5.22;;;22.40;99.90;;;;;;5128463;28;20743;-74
2021/06/15 07:55:51;;;;;;;7.93;5.15;;;22.50;99.90;;;;;;5128620;27;20285;-74
2021/06/15 07:58:17;;;;;;;5.97;4.63;;;22.60;99.90;;;;;;5128643;27;20560;-74
2021/06/15 08:00:44;;;;;;;7.47;4.97;;;22.70;99.90;;;;;;5128676;28;20300;-74
2021/06/15 08:03:11;;;;;;;5.47;4.63;;;22.80;99.90;;;;;;5127705;27;20664;-74
2021/06/15 08:05:39;;;;;;;11.45;5.28;;;22.80;99.90;;;;;;5131873;27;20237;-73
2021/06/15 08:08:06;;;;;;;6.30;5.13;;;22.90;99.90;;;;;;5132293;27;20624;-74
2021/06/15 08:10:32;;;;;;;11.80;5.00;;;22.80;99.90;;;;;;5132299;27;20217;-74
2021/06/15 08:13:01;;;;;;;9.68;5.00;;;22.90;99.90;;;;;;5132217;27;20286;-74
2021/06/15 08:15:28;;;;;;;8.25;4.07;;;22.90;99.90;;;;;;5132025;27;20205;-73
2021/06/15 08:17:55;;;;;;;5.10;4.63;;;22.90;99.90;;;;;;5132295;27;20229;-73
2021/06/15 08:20:21;;;;;;;5.57;4.80;;;23.00;99.90;;;;;;5132007;27;20201;-73
2021/06/15 08:22:49;;;;;;;6.55;4.80;;;22.90;99.90;;;;;;5131927;27;20285;-74
2021/06/15 08:25:16;;;;;;;6.30;4.50;;;22.90;99.90;;;;;;5132266;27;20205;-74
2021/06/15 08:27:43;;;;;;;6.88;4.40;;;23.00;99.90;;;;;;5131951;27;20205;-74
2021/06/15 08:30:11;;;;;;;11.20;5.03;;;23.00;99.90;;;;;;5132079;27;20205;-73
2021/06/15 08:32:39;;;;;;;6.63;5.15;;;23.00;99.90;;;;;;5131333;27;20206;-74
2021/06/15 08:35:07;;;;;;;5.50;5.00;;;23.00;99.90;;;;;;5131608;27;20204;-74
2021/06/15 08:37:35;;;;;;;9.32;5.25;;;23.10;99.90;;;;;;5131503;27;20202;-74
2021/06/15 08:40:04;;;;;;;17.45;4.90;;;23.10;99.90;;;;;;5131558;27;20730;-74
2021/06/15 08:42:31;;;;;;;7.75;3.90;;;23.10;99.90;;;;;;5131465;27;20272;-74
2021/06/15 08:44:58;;;;;;;4.70;4.05;;;23.10;99.90;;;;;;5131585;27;20655;-74
2021/06/15 08:47:25;;;;;;;5.45;4.00;;;23.10;99.90;;;;;;5131380;27;20226;-74
2021/06/15 08:49:52;;;;;;;7.97;3.80;;;23.10;99.90;;;;;;5131448;27;20615;-74
2021/06/15 08:52:26;;;;;;;6.40;3.83;;;23.10;99.90;;;;;;5131271;27;20201;-74
2021/06/15 08:54:54;;;;;;;10.73;3.92;;;23.20;99.90;;;;;;5131637;27;20242;-74
2021/06/15 08:57:23;;;;;;;5.68;3.88;;;23.30;99.90;;;;;;5131338;27;20251;-74
2021/06/15 08:59:50;;;;;;;5.43;3.45;;;23.40;99.90;;;;;;5131091;27;20266;-73
2021/06/15 09:02:17;;;;;;;6.45;3.95;;;23.40;99.90;;;;;;5130941;27;20225;-74
2021/06/15 09:04:45;;;;;;;4.57;3.72;;;23.60;99.90;;;;;;5131140;27;20238;-74
2021/06/15 09:07:12;;;;;;;5.22;3.40;;;23.50;99.90;;;;;;5131195;27;20215;-74
2021/06/15 09:09:40;;;;;;;10.98;4.40;;;23.50;99.90;;;;;;5131768;27;20341;-74
2021/06/15 09:12:09;;;;;;;4.50;3.67;;;23.60;99.90;;;;;;5131186;27;20209;-73
2021/06/15 09:14:44;;;;;;;29.40;6.07;;;23.60;99.90;;;;;;5130983;27;20231;-74
2021/06/15 09:17:13;;;;;;;213.63;19.90;;;23.50;99.90;;;;;;5131084;27;20232;-74
2021/06/15 09:19:41;;;;;;;35.47;7.07;;;23.60;99.90;;;;;;5130856;27;20950;-74
2021/06/15 09:22:21;;;;;;;4.32;3.72;;;23.60;99.90;;;;;;5131053;27;20289;-74
2021/06/15 09:24:48;;;;;;;5.15;4.10;;;23.60;99.90;;;;;;5131051;27;20200;-74
2021/06/15 09:27:15;;;;;;;4.88;3.83;;;23.60;99.90;;;;;;5130583;27;20947;-73
2021/06/15 09:29:47;;;;;;;4.13;3.70;;;23.70;99.90;;;;;;5130756;27;20206;-73
2021/06/15 09:32:17;;;;;;;8.82;4.43;;;23.60;99.90;;;;;;5130373;27;20266;-74
2021/06/15 09:34:56;;;;;;;7.07;4.47;;;23.70;99.90;;;;;;5130559;27;20297;-74
2021/06/15 09:37:31;;;;;;;82.82;11.70;;;23.70;99.90;;;;;;5130379;27;20193;-74
2021/06/15 09:39:59;;;;;;;9.20;4.50;;;23.70;99.90;;;;;;5130884;27;20262;-74
2021/06/15 09:42:26;;;;;;;8.18;3.97;;;23.90;99.90;;;;;;5130477;27;20272;-74
2021/06/15 09:44:54;;;;;;;11.98;4.40;;;23.90;99.90;;;;;;5130629;27;20273;-74
2021/06/15 09:47:23;;;;;;;6.25;3.90;;;24.00;99.90;;;;;;5130249;27;20205;-73
2021/06/15 09:49:50;;;;;;;20.13;5.22;;;24.10;99.90;;;;;;5130415;27;20542;-74
2021/06/15 09:52:19;;;;;;;11.93;5.10;;;24.10;99.90;;;;;;5130205;27;20213;-74
2021/06/15 09:54:48;;;;;;;9.15;4.38;;;24.10;99.90;;;;;;5130114;27;20250;-74
2021/06/15 09:57:21;;;;;;;6.40;4.50;;;24.10;99.90;;;;;;5130154;27;20213;-74
2021/06/15 10:00:06;;;;;;;6.68;3.83;;;24.10;99.90;;;;;;5130387;27;20644;-74
2021/06/15 10:02:33;;;;;;;4.85;4.03;;;24.00;99.90;;;;;;5129874;27;20217;-74
2021/06/15 10:05:04;;;;;;;11.82;4.00;;;23.90;99.90;;;;;;5129840;27;20233;-74
2021/06/15 10:07:32;;;;;;;10.68;4.47;;;24.00;99.90;;;;;;5129677;27;20644;-73
2021/06/15 10:10:00;;;;;;;4.93;4.45;;;24.10;99.90;;;;;;5130109;27;20258;-74
2021/06/15 10:12:27;;;;;;;5.22;4.70;;;24.10;99.90;;;;;;5128473;27;20316;-74
2021/06/15 10:14:55;;;;;;;9.02;4.55;;;24.10;99.90;;;;;;5130020;27;20212;-74
2021/06/15 10:17:24;;;;;;;7.03;4.03;;;24.10;99.90;;;;;;5129631;27;20257;-74
2021/06/15 10:19:52;;;;;;;21.65;5.53;;;24.10;99.90;;;;;;5130171;27;20208;-74
2021/06/15 10:22:19;;;;;;;6.25;5.03;;;24.10;99.90;;;;;;5129772;27;20294;-73
2021/06/15 10:24:48;;;;;;;5.80;4.18;;;24.00;99.90;;;;;;5129934;27;20205;-74
2021/06/15 10:27:14;;;;;;;4.43;4.00;;;23.90;99.90;;;;;;5129125;27;20274;-74
2021/06/15 10:29:43;;;;;;;10.50;6.05;;;23.90;99.90;;;;;;5129793;27;20248;-74
2021/06/15 10:32:13;;;;;;;7.82;4.78;;;23.90;99.90;;;;;;5129789;27;20244;-74
2021/06/15 10:34:51;;;;;;;23.67;5.90;;;23.90;99.90;;;;;;5129571;27;20250;-74
2021/06/15 10:37:48;;;;;;;4.75;4.40;;;24.00;99.90;;;;;;5129621;27;20242;-74
2021/06/15 10:40:48;;;;;;;5.97;4.47;;;24.00;99.90;;;;;;5065745;28;20200;-74
2021/06/15 10:43:21;;;;;;;7.13;4.03;;;24.00;99.90;;;;;;5126007;27;20229;-74
2021/06/15 10:45:52;;;;;;;4.43;4.05;;;24.10;99.90;;;;;;5129193;27;20594;-74
2021/06/15 10:48:28;;;;;;;14.30;5.28;;;24.10;99.90;;;;;;5129325;27;20246;-74
2021/06/15 10:50:57;;;;;;;6.13;4.10;;;24.10;99.90;;;;;;5129201;27;20227;-74
2021/06/15 10:53:35;;;;;;;9.07;5.28;;;24.20;99.90;;;;;;5129264;27;20205;-74
2021/06/15 10:56:04;;;;;;;10.23;9.10;;;24.20;99.90;;;;;;5129507;27;20193;-74
2021/06/15 10:58:53;;;;;;;7.20;5.63;;;24.30;99.90;;;;;;5129066;27;20208;-74
2021/06/15 11:01:23;;;;;;;5.22;4.72;;;24.30;99.90;;;;;;5128759;27;20716;-74
2021/06/15 11:03:51;;;;;;;8.05;4.38;;;24.20;99.90;;;;;;5129136;27;20245;-74
2021/06/15 11:06:21;;;;;;;8.80;4.78;;;24.20;99.90;;;;;;5129012;27;20193;-74
2021/06/15 11:09:05;;;;;;;9.70;4.80;;;24.20;99.90;;;;;;5129078;28;20205;-74
2021/06/15 11:11:33;;;;;;;45.38;7.78;;;24.20;99.90;;;;;;5129079;27;20189;-74
2021/06/15 11:14:06;;;;;;;9.68;4.38;;;24.20;99.90;;;;;;5129010;28;20205;-73
2021/06/15 11:16:35;;;;;;;33.78;5.45;;;24.10;99.90;;;;;;5128854;27;20217;-74
2021/06/15 11:19:30;;;;;;;30.20;6.22;;;24.20;99.90;;;;;;5129081;27;20201;-74
2021/06/15 11:22:00;;;;;;;16.55;5.30;;;24.20;99.90;;;;;;5129096;28;20762;-74
2021/06/15 11:24:28;;;;;;;6.38;4.18;;;24.20;99.90;;;;;;5128994;27;20236;-74
2021/06/15 11:26:57;;;;;;;4.68;3.88;;;24.10;99.90;;;;;;5128972;27;20205;-74
2021/06/15 11:29:31;;;;;;;4.38;4.07;;;24.00;99.90;;;;;;5128815;28;20204;-74
2021/06/15 11:32:22;;;;;;;4.63;4.18;;;23.90;99.90;;;;;;5129073;28;20198;-74
2021/06/15 11:35:18;;;;;;;4.85;4.35;;;23.90;99.90;;;;;;5129112;27;20224;-74
2021/06/15 11:37:49;;;;;;;4.30;3.65;;;23.80;99.90;;;;;;5129381;27;20228;-74
2021/06/15 11:40:27;;;;;;;12.02;4.20;;;23.80;99.90;;;;;;5133089;27;20282;-74
2021/06/15 11:42:55;;;;;;;5.65;4.38;;;24.00;99.90;;;;;;5132964;27;20210;-74
2021/06/15 11:45:33;;;;;;;5.55;4.53;;;24.10;99.90;;;;;;5132873;27;20212;-74
2021/06/15 11:48:31;;;;;;;5.95;3.78;;;24.10;99.90;;;;;;5132810;27;20202;-74
2021/06/15 11:50:59;;;;;;;8.13;3.65;;;24.10;99.90;;;;;;5119539;27;20209;-74
2021/06/15 11:53:27;;;;;;;6.35;4.00;;;24.00;99.90;;;;;;5132435;27;20205;-74
2021/06/15 11:55:55;;;;;;;24.88;5.38;;;24.10;99.90;;;;;;5132789;27;20567;-74
2021/06/15 11:58:25;;;;;;;7.47;3.80;;;24.40;99.90;;;;;;5132522;27;20206;-74
2021/06/15 12:00:54;;;;;;;4.00;3.67;;;24.60;99.90;;;;;;5133029;27;20250;-74
2021/06/15 12:03:22;;;;;;;10.15;4.18;;;24.70;99.90;;;;;;5132460;27;20221;-74
2021/06/15 12:05:51;;;;;;;4.57;4.25;;;24.70;99.90;;;;;;5132215;27;20237;-74
2021/06/15 12:08:18;;;;;;;3.42;3.17;;;24.70;99.80;;;;;;5132393;27;20205;-74
2021/06/15 12:10:47;;;;;;;16.92;4.70;;;24.80;99.80;;;;;;5132184;27;20734;-74
2021/06/15 12:13:16;;;;;;;5.70;3.97;;;25.00;99.80;;;;;;5132261;27;20711;-73
2021/06/15 12:15:55;;;;;;;5.85;3.90;;;25.20;99.60;;;;;;5132126;27;20222;-74
2021/06/15 12:18:39;;;;;;;5.30;4.50;;;25.30;99.40;;;;;;5132352;27;20231;-74
2021/06/15 12:21:08;;;;;;;6.35;3.80;;;25.60;99.10;;;;;;5132308;27;20209;-74
2021/06/15 12:23:41;;;;;;;4.38;4.00;;;25.80;99.00;;;;;;5131820;27;20225;-74
2021/06/15 12:26:24;;;;;;;6.43;4.20;;;26.00;98.60;;;;;;5132041;27;20205;-74
2021/06/15 12:28:54;;;;;;;5.20;4.13;;;25.80;98.40;;;;;;5131773;27;20189;-74
2021/06/15 12:31:23;;;;;;;8.35;4.65;;;26.00;98.30;;;;;;5131863;27;20233;-74
2021/06/15 12:33:51;;;;;;;5.70;4.20;;;26.00;97.60;;;;;;5131905;27;20956;-74
2021/06/15 12:36:20;;;;;;;6.78;6.05;;;25.90;97.70;;;;;;5131584;27;20650;-74
2021/06/15 12:38:48;;;;;;;4.50;4.07;;;25.80;98.00;;;;;;5131578;27;20258;-74
2021/06/15 12:41:18;;;;;;;7.47;4.30;;;25.80;97.90;;;;;;5132019;27;20306;-74
2021/06/15 12:43:47;;;;;;;4.78;3.55;;;25.60;98.00;;;;;;5131555;27;20627;-74
2021/06/15 12:46:17;;;;;;;8.07;3.85;;;25.60;97.90;;;;;;5131457;27;20655;-74
2021/06/15 12:48:47;;;;;;;7.15;3.63;;;25.70;98.00;;;;;;5131065;27;20523;-74
2021/06/15 12:51:15;;;;;;;4.68;4.00;;;25.70;98.00;;;;;;5131605;27;20247;-74
2021/06/15 12:53:43;;;;;;;4.80;4.07;;;25.70;98.00;;;;;;5131304;27;20213;-74
2021/06/15 12:56:16;;;;;;;5.68;3.33;;;25.60;98.30;;;;;;5131267;27;20205;-73
2021/06/15 12:58:49;;;;;;;4.43;3.65;;;25.70;98.40;;;;;;5131471;27;20563;-74
2021/06/15 13:01:18;;;;;;;4.38;3.75;;;25.70;98.20;;;;;;5131833;27;20189;-74